sensor_id;sensor_type;location;lat;lon;timestamp;P1;durP1;ratioP1;P2;durP2;ratioP2
5569;SDS011;2808;51.240;6.794;2022-07-29T00:00:33;10.30;;;1.87;;
5569;SDS011;2808;51.240;6.794;2022-07-29T00:03:03;8.03;;;2.20;;
5569;SDS011;2808;51.240;6.794;2022-07-29T00:05:31;8.90;;;1.90;;
5569;SDS011;2808;51.240;6.794;2022-07-29T00:08:03;7.17;;;2.00;;
5569;SDS011;2808;51.240;6.794;2022-07-29T00:10:31;6.80;;;1.53;;
5569;SDS011;2808;51.240;6.794;2022-07-29T00:12:58;6.30;;;1.70;;
5569;SDS011;2808;51.240;6.794;2022-07-29T00:15:26;9.57;;;1.80;;
5569;SDS011;2808;51.240;6.794;2022-07-29T00:17:53;6.73;;;1.83;;
5569;SDS011;2808;51.240;6.794;2022-07-29T00:20:21;7.37;;;2.10;;
5569;SDS011;2808;51.240;6.794;2022-07-29T00:22:48;4.77;;;1.73;;
5569;SDS011;2808;51.240;6.794;2022-07-29T00:25:19;4.60;;;1.83;;
5569;SDS011;2808;51.240;6.794;2022-07-29T00:27:46;5.17;;;1.40;;
5569;SDS011;2808;51.240;6.794;2022-07-29T00:30:14;10.80;;;1.90;;
5569;SDS011;2808;51.240;6.794;2022-07-29T00:32:45;7.17;;;1.87;;
5569;SDS011;2808;51.240;6.794;2022-07-29T00:35:12;6.67;;;2.03;;
5569;SDS011;2808;51.240;6.794;2022-07-29T00:37:57;13.47;;;2.07;;
5569;SDS011;2808;51.240;6.794;2022-07-29T00:40:26;9.63;;;1.87;;
5569;SDS011;2808;51.240;6.794;2022-07-29T00:42:54;10.87;;;1.90;;
5569;SDS011;2808;51.240;6.794;2022-07-29T00:45:25;8.90;;;1.90;;
5569;SDS011;2808;51.240;6.794;2022-07-29T00:47:52;7.37;;;1.53;;
5569;SDS011;2808;51.240;6.794;2022-07-29T00:50:20;6.30;;;2.30;;
5569;SDS011;2808;51.240;6.794;2022-07-29T00:52:47;5.27;;;1.80;;
5569;SDS011;2808;51.240;6.794;2022-07-29T00:55:15;8.80;;;1.80;;
5569;SDS011;2808;51.240;6.794;2022-07-29T00:57:45;6.93;;;2.00;;
5569;SDS011;2808;51.240;6.794;2022-07-29T01:00:14;6.90;;;2.40;;
5569;SDS011;2808;51.240;6.794;2022-07-29T01:02:46;7.73;;;1.90;;
5569;SDS011;2808;51.240;6.794;2022-07-29T01:05:14;8.03;;;1.80;;
5569;SDS011;2808;51.240;6.794;2022-07-29T01:07:43;8.40;;;1.87;;
5569;SDS011;2808;51.240;6.794;2022-07-29T01:10:14;6.40;;;2.47;;
5569;SDS011;2808;51.240;6.794;2022-07-29T01:12:42;8.13;;;2.10;;
5569;SDS011;2808;51.240;6.794;2022-07-29T01:15:14;5.50;;;1.90;;
5569;SDS011;2808;51.240;6.794;2022-07-29T01:17:43;5.97;;;1.90;;
5569;SDS011;2808;51.240;6.794;2022-07-29T01:20:17;7.50;;;1.43;;
5569;SDS011;2808;51.240;6.794;2022-07-29T01:25:50;5.23;;;1.90;;
5569;SDS011;2808;51.240;6.794;2022-07-29T01:28:36;6.23;;;2.40;;
5569;SDS011;2808;51.240;6.794;2022-07-29T01:31:22;5.73;;;1.93;;
5569;SDS011;2808;51.240;6.794;2022-07-29T01:33:55;5.17;;;1.73;;
5569;SDS011;2808;51.240;6.794;2022-07-29T01:36:29;7.83;;;2.80;;
5569;SDS011;2808;51.240;6.794;2022-07-29T01:39:04;3.90;;;1.57;;
5569;SDS011;2808;51.240;6.794;2022-07-29T01:41:34;7.50;;;2.50;;
5569;SDS011;2808;51.240;6.794;2022-07-29T01:44:10;4.13;;;1.53;;
5569;SDS011;2808;51.240;6.794;2022-07-29T01:46:41;6.90;;;1.90;;
5569;SDS011;2808;51.240;6.794;2022-07-29T01:49:16;6.30;;;1.97;;
5569;SDS011;2808;51.240;6.794;2022-07-29T01:51:49;5.97;;;1.93;;
5569;SDS011;2808;51.240;6.794;2022-07-29T01:54:19;6.37;;;1.80;;
5569;SDS011;2808;51.240;6.794;2022-07-29T01:56:51;10.77;;;1.70;;
5569;SDS011;2808;51.240;6.794;2022-07-29T01:59:24;10.90;;;2.13;;
5569;SDS011;2808;51.240;6.794;2022-07-29T02:01:54;8.50;;;1.90;;
5569;SDS011;2808;51.240;6.794;2022-07-29T02:04:26;16.53;;;1.93;;
5569;SDS011;2808;51.240;6.794;2022-07-29T02:06:56;5.53;;;1.80;;
5569;SDS011;2808;51.240;6.794;2022-07-29T02:09:25;8.67;;;2.23;;
5569;SDS011;2808;51.240;6.794;2022-07-29T02:11:54;5.03;;;1.97;;
5569;SDS011;2808;51.240;6.794;2022-07-29T02:14:25;6.70;;;2.00;;
5569;SDS011;2808;51.240;6.794;2022-07-29T02:16:55;5.17;;;1.70;;
5569;SDS011;2808;51.240;6.794;2022-07-29T02:19:24;9.53;;;1.80;;
5569;SDS011;2808;51.240;6.794;2022-07-29T02:21:53;6.30;;;2.50;;
5569;SDS011;2808;51.240;6.794;2022-07-29T02:24:22;19.93;;;2.00;;
5569;SDS011;2808;51.240;6.794;2022-07-29T02:26:51;7.07;;;2.17;;
5569;SDS011;2808;51.240;6.794;2022-07-29T02:29:22;7.33;;;2.20;;
5569;SDS011;2808;51.240;6.794;2022-07-29T02:31:53;6.23;;;1.97;;
5569;SDS011;2808;51.240;6.794;2022-07-29T02:34:23;7.73;;;1.97;;
5569;SDS011;2808;51.240;6.794;2022-07-29T02:36:52;6.47;;;1.83;;
5569;SDS011;2808;51.240;6.794;2022-07-29T02:39:21;8.00;;;2.40;;
5569;SDS011;2808;51.240;6.794;2022-07-29T02:41:52;8.40;;;2.40;;
5569;SDS011;2808;51.240;6.794;2022-07-29T02:44:24;12.83;;;2.80;;
5569;SDS011;2808;51.240;6.794;2022-07-29T02:46:54;13.23;;;3.17;;
5569;SDS011;2808;51.240;6.794;2022-07-29T02:49:31;6.70;;;3.03;;
5569;SDS011;2808;51.240;6.794;2022-07-29T02:52:03;13.97;;;3.50;;
5569;SDS011;2808;51.240;6.794;2022-07-29T02:54:37;16.90;;;2.50;;
5569;SDS011;2808;51.240;6.794;2022-07-29T02:57:13;10.40;;;2.57;;
5569;SDS011;2808;51.240;6.794;2022-07-29T02:59:47;8.03;;;2.93;;
5569;SDS011;2808;51.240;6.794;2022-07-29T03:02:19;7.43;;;2.50;;
5569;SDS011;2808;51.240;6.794;2022-07-29T03:04:48;10.67;;;2.70;;
5569;SDS011;2808;51.240;6.794;2022-07-29T03:07:18;7.60;;;1.97;;
5569;SDS011;2808;51.240;6.794;2022-07-29T03:09:48;6.77;;;2.60;;
5569;SDS011;2808;51.240;6.794;2022-07-29T03:12:17;8.63;;;2.13;;
5569;SDS011;2808;51.240;6.794;2022-07-29T03:14:46;10.50;;;2.50;;
5569;SDS011;2808;51.240;6.794;2022-07-29T03:17:17;7.10;;;1.90;;
5569;SDS011;2808;51.240;6.794;2022-07-29T03:19:45;48.40;;;2.00;;
5569;SDS011;2808;51.240;6.794;2022-07-29T03:22:13;5.23;;;1.73;;
5569;SDS011;2808;51.240;6.794;2022-07-29T03:24:41;6.40;;;1.80;;
5569;SDS011;2808;51.240;6.794;2022-07-29T03:27:09;10.70;;;2.27;;
5569;SDS011;2808;51.240;6.794;2022-07-29T03:29:37;9.83;;;1.90;;
5569;SDS011;2808;51.240;6.794;2022-07-29T03:32:06;5.50;;;2.00;;
5569;SDS011;2808;51.240;6.794;2022-07-29T03:34:34;10.43;;;2.50;;
5569;SDS011;2808;51.240;6.794;2022-07-29T03:37:03;8.57;;;2.60;;
5569;SDS011;2808;51.240;6.794;2022-07-29T03:39:31;5.70;;;2.00;;
5569;SDS011;2808;51.240;6.794;2022-07-29T03:42:02;7.43;;;2.10;;
5569;SDS011;2808;51.240;6.794;2022-07-29T03:44:36;11.20;;;2.20;;
5569;SDS011;2808;51.240;6.794;2022-07-29T03:47:06;14.43;;;1.90;;
5569;SDS011;2808;51.240;6.794;2022-07-29T03:49:36;8.03;;;2.13;;
5569;SDS011;2808;51.240;6.794;2022-07-29T03:52:05;9.43;;;2.50;;
5569;SDS011;2808;51.240;6.794;2022-07-29T03:54:33;6.17;;;2.40;;
5569;SDS011;2808;51.240;6.794;2022-07-29T03:57:02;6.80;;;2.57;;
5569;SDS011;2808;51.240;6.794;2022-07-29T03:59:32;5.27;;;2.03;;
5569;SDS011;2808;51.240;6.794;2022-07-29T04:02:00;12.13;;;2.57;;
5569;SDS011;2808;51.240;6.794;2022-07-29T04:04:36;8.33;;;2.43;;
5569;SDS011;2808;51.240;6.794;2022-07-29T04:07:04;11.33;;;3.10;;
5569;SDS011;2808;51.240;6.794;2022-07-29T04:09:31;18.67;;;2.70;;
5569;SDS011;2808;51.240;6.794;2022-07-29T04:11:59;6.70;;;2.50;;
5569;SDS011;2808;51.240;6.794;2022-07-29T04:14:26;8.93;;;3.07;;
5569;SDS011;2808;51.240;6.794;2022-07-29T04:16:54;10.60;;;2.83;;
5569;SDS011;2808;51.240;6.794;2022-07-29T04:19:21;21.57;;;8.20;;
5569;SDS011;2808;51.240;6.794;2022-07-29T04:21:50;16.93;;;6.87;;
5569;SDS011;2808;51.240;6.794;2022-07-29T04:24:20;15.50;;;3.00;;
5569;SDS011;2808;51.240;6.794;2022-07-29T04:26:47;10.03;;;2.97;;
5569;SDS011;2808;51.240;6.794;2022-07-29T04:29:15;8.37;;;2.67;;
5569;SDS011;2808;51.240;6.794;2022-07-29T04:31:43;8.73;;;2.70;;
5569;SDS011;2808;51.240;6.794;2022-07-29T04:34:10;8.50;;;2.50;;
5569;SDS011;2808;51.240;6.794;2022-07-29T04:36:38;8.90;;;2.90;;
5569;SDS011;2808;51.240;6.794;2022-07-29T04:39:07;7.73;;;2.63;;
5569;SDS011;2808;51.240;6.794;2022-07-29T04:41:35;9.63;;;2.87;;
5569;SDS011;2808;51.240;6.794;2022-07-29T04:44:02;8.30;;;2.40;;
5569;SDS011;2808;51.240;6.794;2022-07-29T04:46:31;7.10;;;2.40;;
5569;SDS011;2808;51.240;6.794;2022-07-29T04:48:58;9.73;;;2.70;;
5569;SDS011;2808;51.240;6.794;2022-07-29T04:51:25;7.30;;;2.37;;
5569;SDS011;2808;51.240;6.794;2022-07-29T04:53:53;9.90;;;2.90;;
5569;SDS011;2808;51.240;6.794;2022-07-29T04:56:22;7.73;;;2.50;;
5569;SDS011;2808;51.240;6.794;2022-07-29T04:58:49;9.00;;;2.83;;
5569;SDS011;2808;51.240;6.794;2022-07-29T05:01:17;6.00;;;2.77;;
5569;SDS011;2808;51.240;6.794;2022-07-29T05:03:44;7.47;;;2.47;;
5569;SDS011;2808;51.240;6.794;2022-07-29T05:06:12;10.00;;;2.90;;
5569;SDS011;2808;51.240;6.794;2022-07-29T05:08:39;4.40;;;2.10;;
5569;SDS011;2808;51.240;6.794;2022-07-29T05:11:07;10.93;;;3.27;;
5569;SDS011;2808;51.240;6.794;2022-07-29T05:13:36;9.97;;;2.90;;
5569;SDS011;2808;51.240;6.794;2022-07-29T05:16:04;9.73;;;3.00;;
5569;SDS011;2808;51.240;6.794;2022-07-29T05:18:33;8.50;;;3.20;;
5569;SDS011;2808;51.240;6.794;2022-07-29T05:21:03;9.43;;;2.90;;
5569;SDS011;2808;51.240;6.794;2022-07-29T05:23:33;14.70;;;3.40;;
5569;SDS011;2808;51.240;6.794;2022-07-29T05:26:00;10.53;;;3.33;;
5569;SDS011;2808;51.240;6.794;2022-07-29T05:28:28;10.23;;;3.17;;
5569;SDS011;2808;51.240;6.794;2022-07-29T05:31:00;8.53;;;2.80;;
5569;SDS011;2808;51.240;6.794;2022-07-29T05:33:27;10.57;;;2.90;;
5569;SDS011;2808;51.240;6.794;2022-07-29T05:35:55;9.47;;;2.83;;
5569;SDS011;2808;51.240;6.794;2022-07-29T05:38:22;6.67;;;3.00;;
5569;SDS011;2808;51.240;6.794;2022-07-29T05:40:50;6.60;;;2.50;;
5569;SDS011;2808;51.240;6.794;2022-07-29T05:43:20;10.83;;;3.00;;
5569;SDS011;2808;51.240;6.794;2022-07-29T05:45:48;8.53;;;2.77;;
5569;SDS011;2808;51.240;6.794;2022-07-29T05:48:17;9.07;;;3.07;;
5569;SDS011;2808;51.240;6.794;2022-07-29T05:50:47;8.83;;;2.70;;
5569;SDS011;2808;51.240;6.794;2022-07-29T05:53:14;6.10;;;2.70;;
5569;SDS011;2808;51.240;6.794;2022-07-29T05:55:42;13.30;;;2.80;;
5569;SDS011;2808;51.240;6.794;2022-07-29T05:58:09;6.20;;;2.57;;
5569;SDS011;2808;51.240;6.794;2022-07-29T06:00:37;6.47;;;2.73;;
5569;SDS011;2808;51.240;6.794;2022-07-29T06:03:04;5.93;;;2.50;;
5569;SDS011;2808;51.240;6.794;2022-07-29T06:05:33;7.93;;;2.93;;
5569;SDS011;2808;51.240;6.794;2022-07-29T06:08:07;8.43;;;2.70;;
5569;SDS011;2808;51.240;6.794;2022-07-29T06:10:49;6.43;;;2.17;;
5569;SDS011;2808;51.240;6.794;2022-07-29T06:13:17;7.43;;;2.50;;
5569;SDS011;2808;51.240;6.794;2022-07-29T06:15:48;7.60;;;3.10;;
5569;SDS011;2808;51.240;6.794;2022-07-29T06:18:21;13.70;;;2.53;;
5569;SDS011;2808;51.240;6.794;2022-07-29T06:20:53;5.43;;;2.23;;
5569;SDS011;2808;51.240;6.794;2022-07-29T06:23:22;7.80;;;2.07;;
5569;SDS011;2808;51.240;6.794;2022-07-29T06:25:52;4.67;;;2.43;;
5569;SDS011;2808;51.240;6.794;2022-07-29T06:28:24;5.70;;;2.30;;
5569;SDS011;2808;51.240;6.794;2022-07-29T06:31:04;8.27;;;2.63;;
5569;SDS011;2808;51.240;6.794;2022-07-29T06:33:42;7.47;;;2.77;;
5569;SDS011;2808;51.240;6.794;2022-07-29T06:36:12;6.67;;;2.30;;
5569;SDS011;2808;51.240;6.794;2022-07-29T06:38:40;7.70;;;2.67;;
5569;SDS011;2808;51.240;6.794;2022-07-29T06:41:08;8.57;;;2.50;;
5569;SDS011;2808;51.240;6.794;2022-07-29T06:43:38;10.13;;;2.30;;
5569;SDS011;2808;51.240;6.794;2022-07-29T06:46:07;6.50;;;2.20;;
5569;SDS011;2808;51.240;6.794;2022-07-29T06:48:36;6.53;;;2.93;;
5569;SDS011;2808;51.240;6.794;2022-07-29T06:51:08;8.90;;;2.73;;
5569;SDS011;2808;51.240;6.794;2022-07-29T06:53:45;11.50;;;3.97;;
5569;SDS011;2808;51.240;6.794;2022-07-29T06:56:12;9.60;;;3.10;;
5569;SDS011;2808;51.240;6.794;2022-07-29T06:58:40;11.60;;;3.53;;
5569;SDS011;2808;51.240;6.794;2022-07-29T07:01:07;6.30;;;2.93;;
5569;SDS011;2808;51.240;6.794;2022-07-29T07:03:35;9.77;;;3.57;;
5569;SDS011;2808;51.240;6.794;2022-07-29T07:06:05;8.00;;;3.40;;
5569;SDS011;2808;51.240;6.794;2022-07-29T07:08:33;8.30;;;3.63;;
5569;SDS011;2808;51.240;6.794;2022-07-29T07:11:02;14.03;;;3.70;;
5569;SDS011;2808;51.240;6.794;2022-07-29T07:13:31;7.50;;;3.03;;
5569;SDS011;2808;51.240;6.794;2022-07-29T07:15:59;11.23;;;2.77;;
5569;SDS011;2808;51.240;6.794;2022-07-29T07:18:30;6.90;;;2.97;;
5569;SDS011;2808;51.240;6.794;2022-07-29T07:20:58;10.13;;;3.27;;
5569;SDS011;2808;51.240;6.794;2022-07-29T07:23:26;7.80;;;3.57;;
5569;SDS011;2808;51.240;6.794;2022-07-29T07:25:54;12.50;;;3.13;;
5569;SDS011;2808;51.240;6.794;2022-07-29T07:28:23;8.17;;;3.13;;
5569;SDS011;2808;51.240;6.794;2022-07-29T07:30:50;8.30;;;3.30;;
5569;SDS011;2808;51.240;6.794;2022-07-29T07:33:18;11.33;;;3.50;;
5569;SDS011;2808;51.240;6.794;2022-07-29T07:35:49;13.03;;;3.00;;
5569;SDS011;2808;51.240;6.794;2022-07-29T07:38:36;9.40;;;3.00;;
5569;SDS011;2808;51.240;6.794;2022-07-29T07:41:07;8.47;;;2.97;;
5569;SDS011;2808;51.240;6.794;2022-07-29T07:43:36;14.73;;;3.27;;
5569;SDS011;2808;51.240;6.794;2022-07-29T07:46:06;9.57;;;3.50;;
5569;SDS011;2808;51.240;6.794;2022-07-29T07:48:33;6.97;;;3.67;;
5569;SDS011;2808;51.240;6.794;2022-07-29T07:51:08;13.73;;;5.03;;
5569;SDS011;2808;51.240;6.794;2022-07-29T07:54:17;14.33;;;4.00;;
5569;SDS011;2808;51.240;6.794;2022-07-29T07:56:53;11.73;;;3.77;;
5569;SDS011;2808;51.240;6.794;2022-07-29T07:59:22;9.77;;;3.27;;
5569;SDS011;2808;51.240;6.794;2022-07-29T08:01:52;13.27;;;3.90;;
5569;SDS011;2808;51.240;6.794;2022-07-29T08:04:21;14.83;;;4.40;;
5569;SDS011;2808;51.240;6.794;2022-07-29T08:06:53;11.30;;;4.07;;
5569;SDS011;2808;51.240;6.794;2022-07-29T08:09:27;8.23;;;3.37;;
5569;SDS011;2808;51.240;6.794;2022-07-29T08:11:55;9.30;;;3.67;;
5569;SDS011;2808;51.240;6.794;2022-07-29T08:14:32;8.93;;;3.37;;
5569;SDS011;2808;51.240;6.794;2022-07-29T08:17:02;13.43;;;3.90;;
5569;SDS011;2808;51.240;6.794;2022-07-29T08:19:29;10.37;;;4.07;;
5569;SDS011;2808;51.240;6.794;2022-07-29T08:21:59;13.50;;;3.47;;
5569;SDS011;2808;51.240;6.794;2022-07-29T08:24:26;13.63;;;3.90;;
5569;SDS011;2808;51.240;6.794;2022-07-29T08:27:11;10.57;;;3.90;;
5569;SDS011;2808;51.240;6.794;2022-07-29T08:29:43;8.43;;;3.23;;
5569;SDS011;2808;51.240;6.794;2022-07-29T08:32:13;11.43;;;4.30;;
5569;SDS011;2808;51.240;6.794;2022-07-29T08:34:41;6.43;;;3.30;;
5569;SDS011;2808;51.240;6.794;2022-07-29T08:37:17;10.00;;;3.87;;
5569;SDS011;2808;51.240;6.794;2022-07-29T08:39:47;7.57;;;3.17;;
5569;SDS011;2808;51.240;6.794;2022-07-29T08:42:18;12.40;;;4.17;;
5569;SDS011;2808;51.240;6.794;2022-07-29T08:44:58;9.43;;;4.30;;
5569;SDS011;2808;51.240;6.794;2022-07-29T08:47:29;9.87;;;3.60;;
5569;SDS011;2808;51.240;6.794;2022-07-29T08:49:59;12.30;;;4.23;;
5569;SDS011;2808;51.240;6.794;2022-07-29T08:52:32;19.90;;;3.83;;
5569;SDS011;2808;51.240;6.794;2022-07-29T08:55:02;10.00;;;4.30;;
5569;SDS011;2808;51.240;6.794;2022-07-29T08:57:33;12.93;;;4.80;;
5569;SDS011;2808;51.240;6.794;2022-07-29T09:00:13;7.43;;;3.60;;
5569;SDS011;2808;51.240;6.794;2022-07-29T09:02:47;16.37;;;4.37;;
5569;SDS011;2808;51.240;6.794;2022-07-29T09:05:23;10.13;;;4.23;;
5569;SDS011;2808;51.240;6.794;2022-07-29T09:07:52;9.90;;;3.93;;
5569;SDS011;2808;51.240;6.794;2022-07-29T09:10:21;9.93;;;3.53;;
5569;SDS011;2808;51.240;6.794;2022-07-29T09:12:56;9.37;;;3.83;;
5569;SDS011;2808;51.240;6.794;2022-07-29T09:15:28;10.60;;;4.77;;
5569;SDS011;2808;51.240;6.794;2022-07-29T09:17:58;10.17;;;3.90;;
5569;SDS011;2808;51.240;6.794;2022-07-29T09:20:27;12.23;;;4.20;;
5569;SDS011;2808;51.240;6.794;2022-07-29T09:23:22;10.13;;;4.10;;
5569;SDS011;2808;51.240;6.794;2022-07-29T09:26:11;8.43;;;4.00;;
5569;SDS011;2808;51.240;6.794;2022-07-29T09:28:53;8.47;;;3.70;;
5569;SDS011;2808;51.240;6.794;2022-07-29T09:34:24;19.50;;;4.30;;
5569;SDS011;2808;51.240;6.794;2022-07-29T09:37:05;10.00;;;3.50;;
5569;SDS011;2808;51.240;6.794;2022-07-29T09:40:01;10.27;;;3.60;;
5569;SDS011;2808;51.240;6.794;2022-07-29T09:42:51;16.50;;;3.97;;
5569;SDS011;2808;51.240;6.794;2022-07-29T09:45:31;11.63;;;3.60;;
5569;SDS011;2808;51.240;6.794;2022-07-29T09:48:12;16.50;;;3.53;;
5569;SDS011;2808;51.240;6.794;2022-07-29T09:50:48;8.80;;;3.70;;
5569;SDS011;2808;51.240;6.794;2022-07-29T09:53:29;5.80;;;3.30;;
5569;SDS011;2808;51.240;6.794;2022-07-29T09:56:18;13.13;;;3.40;;
5569;SDS011;2808;51.240;6.794;2022-07-29T09:58:53;7.93;;;3.67;;
5569;SDS011;2808;51.240;6.794;2022-07-29T10:01:32;9.13;;;3.40;;
5569;SDS011;2808;51.240;6.794;2022-07-29T10:04:02;10.53;;;3.50;;
5569;SDS011;2808;51.240;6.794;2022-07-29T10:06:30;5.63;;;3.17;;
5569;SDS011;2808;51.240;6.794;2022-07-29T10:09:06;18.53;;;4.80;;
5569;SDS011;2808;51.240;6.794;2022-07-29T10:11:43;10.90;;;4.00;;
5569;SDS011;2808;51.240;6.794;2022-07-29T10:14:33;6.73;;;4.00;;
5569;SDS011;2808;51.240;6.794;2022-07-29T10:17:01;14.07;;;3.63;;
5569;SDS011;2808;51.240;6.794;2022-07-29T10:19:32;8.07;;;4.17;;
5569;SDS011;2808;51.240;6.794;2022-07-29T10:22:02;9.20;;;4.10;;
5569;SDS011;2808;51.240;6.794;2022-07-29T10:24:31;9.00;;;3.97;;
5569;SDS011;2808;51.240;6.794;2022-07-29T10:27:00;11.47;;;3.70;;
5569;SDS011;2808;51.240;6.794;2022-07-29T10:29:30;8.10;;;3.40;;
5569;SDS011;2808;51.240;6.794;2022-07-29T10:32:10;9.40;;;3.77;;
5569;SDS011;2808;51.240;6.794;2022-07-29T10:34:54;9.97;;;3.40;;
5569;SDS011;2808;51.240;6.794;2022-07-29T10:37:42;9.80;;;3.20;;
5569;SDS011;2808;51.240;6.794;2022-07-29T10:40:27;9.60;;;3.07;;
5569;SDS011;2808;51.240;6.794;2022-07-29T10:43:36;7.17;;;2.83;;
5569;SDS011;2808;51.240;6.794;2022-07-29T10:46:11;6.80;;;3.07;;
5569;SDS011;2808;51.240;6.794;2022-07-29T10:52:03;8.63;;;3.30;;
5569;SDS011;2808;51.240;6.794;2022-07-29T10:54:49;7.47;;;3.27;;
5569;SDS011;2808;51.240;6.794;2022-07-29T10:57:38;11.83;;;4.20;;
5569;SDS011;2808;51.240;6.794;2022-07-29T11:00:34;10.43;;;5.97;;
5569;SDS011;2808;51.240;6.794;2022-07-29T11:03:02;10.40;;;4.13;;
5569;SDS011;2808;51.240;6.794;2022-07-29T11:05:30;5.43;;;2.83;;
5569;SDS011;2808;51.240;6.794;2022-07-29T11:08:31;7.40;;;3.00;;
5569;SDS011;2808;51.240;6.794;2022-07-29T11:14:05;9.63;;;3.00;;
5569;SDS011;2808;51.240;6.794;2022-07-29T11:23:03;14.43;;;2.33;;
5569;SDS011;2808;51.240;6.794;2022-07-29T11:29:06;15.13;;;4.40;;
5569;SDS011;2808;51.240;6.794;2022-07-29T11:31:46;7.87;;;2.97;;
5569;SDS011;2808;51.240;6.794;2022-07-29T11:34:34;14.10;;;4.50;;
5569;SDS011;2808;51.240;6.794;2022-07-29T11:37:24;11.97;;;4.17;;
5569;SDS011;2808;51.240;6.794;2022-07-29T11:40:10;11.57;;;2.80;;
5569;SDS011;2808;51.240;6.794;2022-07-29T11:42:46;8.20;;;2.60;;
5569;SDS011;2808;51.240;6.794;2022-07-29T11:45:31;10.87;;;3.47;;
5569;SDS011;2808;51.240;6.794;2022-07-29T11:48:35;7.27;;;2.60;;
5569;SDS011;2808;51.240;6.794;2022-07-29T11:51:16;10.33;;;3.80;;
5569;SDS011;2808;51.240;6.794;2022-07-29T11:53:50;16.50;;;4.00;;
5569;SDS011;2808;51.240;6.794;2022-07-29T11:56:18;15.10;;;3.03;;
5569;SDS011;2808;51.240;6.794;2022-07-29T11:59:02;8.00;;;2.83;;
5569;SDS011;2808;51.240;6.794;2022-07-29T12:04:52;8.40;;;4.03;;
5569;SDS011;2808;51.240;6.794;2022-07-29T12:07:39;15.23;;;3.97;;
5569;SDS011;2808;51.240;6.794;2022-07-29T12:20:13;16.87;;;3.87;;
5569;SDS011;2808;51.240;6.794;2022-07-29T12:24:01;10.90;;;3.40;;
5569;SDS011;2808;51.240;6.794;2022-07-29T12:26:58;10.67;;;3.80;;
5569;SDS011;2808;51.240;6.794;2022-07-29T12:29:55;16.33;;;3.80;;
5569;SDS011;2808;51.240;6.794;2022-07-29T12:32:33;17.43;;;4.47;;
5569;SDS011;2808;51.240;6.794;2022-07-29T12:35:12;12.30;;;4.00;;
5569;SDS011;2808;51.240;6.794;2022-07-29T12:37:48;16.00;;;5.00;;
5569;SDS011;2808;51.240;6.794;2022-07-29T12:40:22;10.83;;;4.10;;
5569;SDS011;2808;51.240;6.794;2022-07-29T12:43:51;22.57;;;8.37;;
5569;SDS011;2808;51.240;6.794;2022-07-29T12:46:36;12.30;;;4.73;;
5569;SDS011;2808;51.240;6.794;2022-07-29T12:49:05;14.93;;;5.50;;
5569;SDS011;2808;51.240;6.794;2022-07-29T12:51:34;15.10;;;4.97;;
5569;SDS011;2808;51.240;6.794;2022-07-29T12:54:08;10.53;;;3.50;;
5569;SDS011;2808;51.240;6.794;2022-07-29T12:56:44;13.97;;;4.37;;
5569;SDS011;2808;51.240;6.794;2022-07-29T12:59:24;16.50;;;8.10;;
5569;SDS011;2808;51.240;6.794;2022-07-29T13:02:03;11.67;;;5.60;;
5569;SDS011;2808;51.240;6.794;2022-07-29T13:07:52;15.93;;;4.00;;
5569;SDS011;2808;51.240;6.794;2022-07-29T13:14:31;12.73;;;3.37;;
5569;SDS011;2808;51.240;6.794;2022-07-29T13:17:18;9.47;;;3.33;;
5569;SDS011;2808;51.240;6.794;2022-07-29T13:20:05;9.80;;;3.13;;
5569;SDS011;2808;51.240;6.794;2022-07-29T13:22:37;8.83;;;3.50;;
5569;SDS011;2808;51.240;6.794;2022-07-29T13:25:11;9.93;;;3.23;;
5569;SDS011;2808;51.240;6.794;2022-07-29T13:27:56;11.07;;;5.40;;
5569;SDS011;2808;51.240;6.794;2022-07-29T13:30:25;8.97;;;3.60;;
5569;SDS011;2808;51.240;6.794;2022-07-29T13:32:55;11.90;;;4.10;;
5569;SDS011;2808;51.240;6.794;2022-07-29T13:35:29;16.10;;;3.50;;
5569;SDS011;2808;51.240;6.794;2022-07-29T13:37:57;15.83;;;4.30;;
5569;SDS011;2808;51.240;6.794;2022-07-29T13:40:31;9.30;;;3.80;;
5569;SDS011;2808;51.240;6.794;2022-07-29T13:43:10;14.80;;;3.30;;
5569;SDS011;2808;51.240;6.794;2022-07-29T13:45:38;9.03;;;3.80;;
5569;SDS011;2808;51.240;6.794;2022-07-29T13:48:13;13.57;;;4.67;;
5569;SDS011;2808;51.240;6.794;2022-07-29T13:50:46;12.97;;;5.43;;
5569;SDS011;2808;51.240;6.794;2022-07-29T13:53:17;20.83;;;4.53;;
5569;SDS011;2808;51.240;6.794;2022-07-29T13:55:47;12.70;;;4.63;;
5569;SDS011;2808;51.240;6.794;2022-07-29T13:58:18;11.27;;;4.00;;
5569;SDS011;2808;51.240;6.794;2022-07-29T14:00:46;11.70;;;3.30;;
5569;SDS011;2808;51.240;6.794;2022-07-29T14:03:27;13.77;;;4.17;;
5569;SDS011;2808;51.240;6.794;2022-07-29T14:09:27;12.33;;;3.30;;
5569;SDS011;2808;51.240;6.794;2022-07-29T14:11:58;9.03;;;3.33;;
5569;SDS011;2808;51.240;6.794;2022-07-29T14:14:30;9.67;;;3.00;;
5569;SDS011;2808;51.240;6.794;2022-07-29T14:16:58;13.97;;;3.63;;
5569;SDS011;2808;51.240;6.794;2022-07-29T14:19:30;12.33;;;3.80;;
5569;SDS011;2808;51.240;6.794;2022-07-29T14:22:02;10.73;;;3.63;;
5569;SDS011;2808;51.240;6.794;2022-07-29T14:24:32;12.47;;;4.27;;
5569;SDS011;2808;51.240;6.794;2022-07-29T14:27:09;19.20;;;5.50;;
5569;SDS011;2808;51.240;6.794;2022-07-29T14:29:37;16.83;;;5.57;;
5569;SDS011;2808;51.240;6.794;2022-07-29T14:32:05;22.20;;;4.90;;
5569;SDS011;2808;51.240;6.794;2022-07-29T14:34:36;16.80;;;4.67;;
5569;SDS011;2808;51.240;6.794;2022-07-29T14:37:19;20.30;;;5.00;;
5569;SDS011;2808;51.240;6.794;2022-07-29T14:39:57;18.60;;;4.50;;
5569;SDS011;2808;51.240;6.794;2022-07-29T14:42:32;12.60;;;4.00;;
5569;SDS011;2808;51.240;6.794;2022-07-29T14:45:16;17.67;;;3.60;;
5569;SDS011;2808;51.240;6.794;2022-07-29T14:47:56;11.33;;;3.67;;
5569;SDS011;2808;51.240;6.794;2022-07-29T14:50:32;12.50;;;4.17;;
5569;SDS011;2808;51.240;6.794;2022-07-29T14:53:11;29.57;;;11.67;;
5569;SDS011;2808;51.240;6.794;2022-07-29T14:55:48;9.33;;;3.80;;
5569;SDS011;2808;51.240;6.794;2022-07-29T14:58:19;9.77;;;4.00;;
5569;SDS011;2808;51.240;6.794;2022-07-29T15:00:52;15.57;;;4.10;;
5569;SDS011;2808;51.240;6.794;2022-07-29T15:03:44;14.73;;;3.93;;
5569;SDS011;2808;51.240;6.794;2022-07-29T15:06:18;11.80;;;4.30;;
5569;SDS011;2808;51.240;6.794;2022-07-29T15:08:57;11.00;;;4.67;;
5569;SDS011;2808;51.240;6.794;2022-07-29T15:11:29;14.93;;;4.57;;
5569;SDS011;2808;51.240;6.794;2022-07-29T15:13:59;15.83;;;4.17;;
5569;SDS011;2808;51.240;6.794;2022-07-29T15:16:32;12.30;;;4.33;;
5569;SDS011;2808;51.240;6.794;2022-07-29T15:19:09;10.57;;;3.20;;
5569;SDS011;2808;51.240;6.794;2022-07-29T15:21:37;7.63;;;3.30;;
5569;SDS011;2808;51.240;6.794;2022-07-29T15:24:09;10.57;;;3.63;;
5569;SDS011;2808;51.240;6.794;2022-07-29T15:26:41;11.17;;;4.20;;
5569;SDS011;2808;51.240;6.794;2022-07-29T15:29:22;15.83;;;5.17;;
5569;SDS011;2808;51.240;6.794;2022-07-29T15:31:59;11.97;;;3.77;;
5569;SDS011;2808;51.240;6.794;2022-07-29T15:34:44;12.87;;;2.87;;
5569;SDS011;2808;51.240;6.794;2022-07-29T15:37:21;14.00;;;3.83;;
5569;SDS011;2808;51.240;6.794;2022-07-29T15:40:02;8.83;;;3.63;;
5569;SDS011;2808;51.240;6.794;2022-07-29T15:42:31;11.03;;;3.50;;
5569;SDS011;2808;51.240;6.794;2022-07-29T15:45:08;7.43;;;3.03;;
5569;SDS011;2808;51.240;6.794;2022-07-29T15:47:53;10.20;;;3.17;;
5569;SDS011;2808;51.240;6.794;2022-07-29T15:50:23;8.43;;;3.70;;
5569;SDS011;2808;51.240;6.794;2022-07-29T15:52:50;9.87;;;3.77;;
5569;SDS011;2808;51.240;6.794;2022-07-29T15:55:19;18.17;;;3.60;;
5569;SDS011;2808;51.240;6.794;2022-07-29T15:57:49;9.70;;;3.20;;
5569;SDS011;2808;51.240;6.794;2022-07-29T16:00:17;9.60;;;3.00;;
5569;SDS011;2808;51.240;6.794;2022-07-29T16:02:53;11.30;;;3.27;;
5569;SDS011;2808;51.240;6.794;2022-07-29T16:05:24;7.43;;;2.93;;
5569;SDS011;2808;51.240;6.794;2022-07-29T16:07:53;12.07;;;3.80;;
5569;SDS011;2808;51.240;6.794;2022-07-29T16:14:15;14.63;;;5.17;;
5569;SDS011;2808;51.240;6.794;2022-07-29T16:16:45;15.00;;;5.30;;
5569;SDS011;2808;51.240;6.794;2022-07-29T16:19:18;12.33;;;4.00;;
5569;SDS011;2808;51.240;6.794;2022-07-29T16:21:50;11.23;;;4.07;;
5569;SDS011;2808;51.240;6.794;2022-07-29T16:24:35;10.47;;;3.50;;
5569;SDS011;2808;51.240;6.794;2022-07-29T16:27:24;10.37;;;3.10;;
5569;SDS011;2808;51.240;6.794;2022-07-29T16:30:01;8.47;;;3.33;;
5569;SDS011;2808;51.240;6.794;2022-07-29T16:32:36;11.97;;;3.60;;
5569;SDS011;2808;51.240;6.794;2022-07-29T16:35:10;12.50;;;4.00;;
5569;SDS011;2808;51.240;6.794;2022-07-29T16:40:24;12.93;;;2.70;;